Aristobulo del Valle, Argentina
Current Conditions -  °F | °C
As of 2:00 PM on Friday 28 Nov 2014 (Local Time) from SARI Reporting Station
Broken Clouds Broken Clouds  
Wind Chill: 88°   Ceiling: 3000
Heat Index: 98°   Visibility: 6mi
Dew Point: 75°   Wind: 3mph
Humidity: 66%   Direction: 50°NE
Pressure: 29.94"   Gusts: NA
Location:  26.92°S, 54.35°W
Report Text: SARI 281700Z 05003KT 9999 BKN030 BKN10031/24 Q1014
Loading
Personal Weather Stations






























Interactive Weather Map New forecast layout! Learn more

10-Day Weather Forecast

Advertisements
Track Severe Weather on mobile